Bethel Regional Airport (0B1)
Bethel, ME
Field Elevation: 674
Lat: 44°25.51N  Long: 70°48.60W
CTAF/Unicom Freq: 122.9000
   
     For Weather-by-Phone, call 207-512-2516
Weather Advisories
2019-07-15   18:33 Z
Altimeter 29.99" Hg
Wind 310° @ 11 KT
Gusts 16 KT
Visibility 10 SM
Ceiling CLR
Temperature 25° C (77° F)
Dewpoint 11° C (52° F)
Relative Humidity 41%
Density Altitude 1,900 feet
Condensation Altitude 7,600 feet
Wind and Runways
Indicated Runway = 32
Headwind = 11 kt
Crosswind = 2 kt
History
 
 
 
More Info
All DigiWx sites map
 
NOAA Forecast
 
Airport IQ 5010
(KBXM) Brunswick, ME
(39N) Princeton, NJ
 
about DigiWx
 
FAA Disclaimer: The data displayed is for advisory purposes only and is not to be used for flight planning or operations. For official data, please call 207-512-2516 to hear the current automated AWOS voice message.
  METAR 0B1 151833Z AUTO 31011G16KT 10 SM CLR 25/11 A2999